createdAt,value
2018-09-05T00:00:05.760Z,20.74
2018-09-05T00:01:05.763Z,20.77
2018-09-05T00:02:05.766Z,20.85
2018-09-05T00:03:05.767Z,20.82
2018-09-05T00:04:05.771Z,20.81
2018-09-05T00:05:05.772Z,20.88
2018-09-05T00:06:05.775Z,20.82
2018-09-05T00:07:05.777Z,20.81
2018-09-05T00:08:05.781Z,20.88
2018-09-05T00:09:05.781Z,20.82
2018-09-05T00:10:05.784Z,20.77
2018-09-05T00:11:05.786Z,20.72
2018-09-05T00:12:05.789Z,20.72
2018-09-05T00:13:05.791Z,20.77
2018-09-05T00:14:05.795Z,20.74
2018-09-05T00:15:05.796Z,20.88
2018-09-05T00:16:05.799Z,20.85
2018-09-05T00:17:05.801Z,20.82
2018-09-05T00:18:05.802Z,20.88
2018-09-05T00:19:05.806Z,20.90
2018-09-05T00:20:05.808Z,20.82
2018-09-05T00:21:05.811Z,20.75
2018-09-05T00:22:05.813Z,20.80
2018-09-05T00:23:05.815Z,20.84
2018-09-05T00:24:05.817Z,20.72
2018-09-05T00:25:05.819Z,20.78
2018-09-05T00:26:05.824Z,20.70
2018-09-05T00:27:05.825Z,20.59
2018-09-05T00:28:05.825Z,20.66
2018-09-05T00:29:05.830Z,20.56
2018-09-05T00:30:05.831Z,20.60
2018-09-05T00:31:05.833Z,20.56
2018-09-05T00:32:05.836Z,20.60
2018-09-05T00:33:05.839Z,20.58
2018-09-05T00:34:05.842Z,20.56
2018-09-05T00:35:05.846Z,20.55
2018-09-05T00:36:05.846Z,20.51
2018-09-05T00:37:05.848Z,20.47
2018-09-05T00:38:05.850Z,20.43
2018-09-05T00:39:05.852Z,20.36
2018-09-05T00:40:05.854Z,20.31
2018-09-05T00:41:05.858Z,20.22
2018-09-05T00:42:05.860Z,20.10
2018-09-05T00:43:05.861Z,20.19
2018-09-05T00:44:05.864Z,20.14
2018-09-05T00:45:05.867Z,19.91
2018-09-05T00:46:05.872Z,19.89
2018-09-05T00:47:05.871Z,19.69
2018-09-05T00:48:05.875Z,19.71
2018-09-05T00:49:05.875Z,19.56
2018-09-05T00:50:05.881Z,19.59
2018-09-05T00:51:05.881Z,19.59
2018-09-05T00:52:05.882Z,19.54
2018-09-05T00:53:05.886Z,19.63
2018-09-05T00:54:05.887Z,19.55
2018-09-05T00:55:05.893Z,19.54
2018-09-05T00:56:05.891Z,19.49
2018-09-05T00:57:05.895Z,19.51
2018-09-05T00:58:05.896Z,19.48
2018-09-05T00:59:05.900Z,19.49
2018-09-05T01:00:05.899Z,19.51
2018-09-05T01:01:05.909Z,19.54
2018-09-05T01:02:05.905Z,19.51
2018-09-05T01:03:05.907Z,19.47
2018-09-05T01:04:05.911Z,19.51
2018-09-05T01:05:05.916Z,19.51
2018-09-05T01:06:05.915Z,19.51
2018-09-05T01:07:05.916Z,19.54
2018-09-05T01:08:05.920Z,19.37
2018-09-05T01:09:05.921Z,19.39
2018-09-05T01:10:05.926Z,19.41
2018-09-05T01:11:05.924Z,19.36
2018-09-05T01:12:05.927Z,19.39
2018-09-05T01:13:05.928Z,19.41
2018-09-05T01:14:05.931Z,19.36
2018-09-05T01:15:05.937Z,19.41
2018-09-05T01:16:05.934Z,19.27
2018-09-05T01:17:05.936Z,19.41
2018-09-05T01:18:05.940Z,19.44
2018-09-05T01:19:05.939Z,19.48
2018-09-05T01:20:05.944Z,19.40
2018-09-05T01:21:05.943Z,19.49
2018-09-05T01:22:05.948Z,19.37
2018-09-05T01:23:05.947Z,19.36
2018-09-05T01:24:05.951Z,19.37
2018-09-05T01:25:05.952Z,19.34
2018-09-05T01:26:05.955Z,19.31
2018-09-05T01:27:05.955Z,19.26
2018-09-05T01:28:05.958Z,19.24
2018-09-05T01:29:05.960Z,19.21
2018-09-05T01:30:05.962Z,19.26
2018-09-05T01:31:05.964Z,19.26
2018-09-05T01:32:05.968Z,19.21
2018-09-05T01:33:05.970Z,19.27
2018-09-05T01:34:05.972Z,19.22
2018-09-05T01:35:05.970Z,19.21
2018-09-05T01:36:05.973Z,19.24
2018-09-05T01:37:05.975Z,19.18
2018-09-05T01:38:05.978Z,19.24
2018-09-05T01:39:05.977Z,19.14
2018-09-05T01:40:05.980Z,19.21
2018-09-05T01:41:05.983Z,19.09
2018-09-05T01:42:05.985Z,19.09
2018-09-05T01:43:05.987Z,19.08
2018-09-05T01:44:05.989Z,18.99
2018-09-05T01:45:05.989Z,19.08
2018-09-05T01:46:05.993Z,19.11
2018-09-05T01:47:05.992Z,19.02
2018-09-05T01:48:05.996Z,19.09
2018-09-05T01:49:05.997Z,19.09
2018-09-05T01:50:05.999Z,19.02
2018-09-05T01:51:06.001Z,18.99
2018-09-05T01:52:06.003Z,18.99
2018-09-05T01:53:06.005Z,18.98
2018-09-05T01:54:06.007Z,18.89
2018-09-05T01:55:06.008Z,18.99
2018-09-05T01:56:06.012Z,18.96
2018-09-05T01:57:06.012Z,18.90
2018-09-05T01:58:06.015Z,18.80
2018-09-05T01:59:06.014Z,18.83
2018-09-05T02:00:06.018Z,18.75
2018-09-05T02:01:06.019Z,18.70
2018-09-05T02:02:06.021Z,18.70
2018-09-05T02:03:06.021Z,18.70
2018-09-05T02:04:06.023Z,18.73
2018-09-05T02:05:06.025Z,18.77
2018-09-05T02:06:06.029Z,18.70
2018-09-05T02:07:06.027Z,18.71
2018-09-05T02:08:06.031Z,18.70
2018-09-05T02:09:06.032Z,18.56
2018-09-05T02:10:06.034Z,18.55
2018-09-05T02:11:06.035Z,18.49
2018-09-05T02:12:06.037Z,18.49
2018-09-05T02:13:06.038Z,18.47
2018-09-05T02:14:06.043Z,18.43
2018-09-05T02:15:06.041Z,18.41
2018-09-05T02:16:06.045Z,18.41
2018-09-05T02:17:06.045Z,18.49
2018-09-05T02:18:06.049Z,18.53
2018-09-05T02:19:06.049Z,18.55
2018-09-05T02:20:06.051Z,18.50
2018-09-05T02:21:06.051Z,18.58
2018-09-05T02:22:06.054Z,18.52
2018-09-05T02:23:06.056Z,18.50
2018-09-05T02:24:06.056Z,18.41
2018-09-05T02:25:06.061Z,18.34
2018-09-05T02:26:06.060Z,18.33
2018-09-05T02:27:06.061Z,18.28
2018-09-05T02:28:06.063Z,18.35
2018-09-05T02:29:06.065Z,18.28
2018-09-05T02:30:06.067Z,18.26
2018-09-05T02:31:06.066Z,18.28
2018-09-05T02:32:06.069Z,18.26
2018-09-05T02:33:06.070Z,18.16
2018-09-05T02:34:06.072Z,18.22
2018-09-05T02:35:06.072Z,18.19
2018-09-05T02:36:06.075Z,18.20
2018-09-05T02:37:06.076Z,18.22
2018-09-05T02:38:06.077Z,18.28
2018-09-05T02:39:06.079Z,18.19
2018-09-05T02:40:06.080Z,18.18
2018-09-05T02:41:06.085Z,18.23
2018-09-05T02:42:06.083Z,18.20
2018-09-05T02:43:06.085Z,18.13
2018-09-05T02:44:06.085Z,18.20
2018-09-05T02:45:06.088Z,18.10
2018-09-05T02:46:06.088Z,18.23
2018-09-05T02:47:06.090Z,18.20
2018-09-05T02:48:06.090Z,18.26
2018-09-05T02:49:06.092Z,18.15
2018-09-05T02:50:06.094Z,18.18
2018-09-05T02:51:06.094Z,18.04
2018-09-05T02:52:06.097Z,18.07
2018-09-05T02:53:06.097Z,17.98
2018-09-05T02:54:06.099Z,17.89
2018-09-05T02:55:06.099Z,17.97
2018-09-05T02:56:06.102Z,17.97
2018-09-05T02:57:06.103Z,17.98
2018-09-05T02:58:06.104Z,17.90
2018-09-05T02:59:06.104Z,17.92
2018-09-05T03:00:06.112Z,17.95
2018-09-05T03:01:06.110Z,17.92
2018-09-05T03:02:06.109Z,17.97
2018-09-05T03:03:06.111Z,18.13
2018-09-05T03:04:06.112Z,18.10
2018-09-05T03:05:06.115Z,18.03
2018-09-05T03:06:06.116Z,18.01
2018-09-05T03:07:06.115Z,18.01
2018-09-05T03:08:06.117Z,17.90
2018-09-05T03:09:06.118Z,17.89
2018-09-05T03:10:06.123Z,17.86
2018-09-05T03:11:06.121Z,17.80
2018-09-05T03:12:06.121Z,17.90
2018-09-05T03:13:06.123Z,17.76
2018-09-05T03:14:06.124Z,17.79
2018-09-05T03:15:06.125Z,17.82
2018-09-05T03:16:06.125Z,17.71
2018-09-05T03:17:06.127Z,17.82
2018-09-05T03:18:06.128Z,17.80
2018-09-05T03:19:06.129Z,17.74
2018-09-05T03:20:06.131Z,17.70
2018-09-05T03:21:06.132Z,17.71
2018-09-05T03:22:06.134Z,17.71
2018-09-05T03:23:06.133Z,17.72
2018-09-05T03:24:06.136Z,17.64
2018-09-05T03:25:06.136Z,17.72
2018-09-05T03:26:06.138Z,17.70
2018-09-05T03:27:06.137Z,17.67
2018-09-05T03:28:06.140Z,17.70
2018-09-05T03:29:06.140Z,17.70
2018-09-05T03:30:06.142Z,17.63
2018-09-05T03:31:06.143Z,17.67
2018-09-05T03:32:06.181Z,17.63
2018-09-05T03:33:06.215Z,17.64
2018-09-05T03:34:06.147Z,17.64
2018-09-05T03:35:06.148Z,17.72
2018-09-05T03:36:06.148Z,17.64
2018-09-05T03:37:06.148Z,17.72
2018-09-05T03:38:06.157Z,17.56
2018-09-05T03:39:06.152Z,17.64
2018-09-05T03:40:06.152Z,17.59
2018-09-05T03:41:06.153Z,17.56
2018-09-05T03:42:06.155Z,17.46
2018-09-05T03:43:06.156Z,17.44
2018-09-05T03:44:06.157Z,17.45
2018-09-05T03:45:06.157Z,17.42
2018-09-05T03:46:06.160Z,17.44
2018-09-05T03:47:06.162Z,17.56
2018-09-05T03:48:06.159Z,17.52
2018-09-05T03:49:06.161Z,17.70
2018-09-05T03:50:06.164Z,17.74
2018-09-05T03:51:06.162Z,17.82
2018-09-05T03:52:06.164Z,17.79
2018-09-05T03:53:06.164Z,17.82
2018-09-05T03:54:06.166Z,17.87
2018-09-05T03:55:06.167Z,17.80
2018-09-05T03:56:06.167Z,17.80
2018-09-05T03:57:06.168Z,17.85
2018-09-05T03:58:06.171Z,17.80
2018-09-05T03:59:06.170Z,17.71
2018-09-05T04:00:06.170Z,17.76
2018-09-05T04:01:06.173Z,17.65
2018-09-05T04:02:06.173Z,17.72
2018-09-05T04:03:06.176Z,17.71
2018-09-05T04:04:06.175Z,17.72
2018-09-05T04:05:06.240Z,17.76
2018-09-05T04:06:06.177Z,17.76
2018-09-05T04:07:06.175Z,17.82
2018-09-05T04:08:06.181Z,17.80
2018-09-05T04:09:06.179Z,17.85
2018-09-05T04:10:06.180Z,17.82
2018-09-05T04:11:06.179Z,17.86
2018-09-05T04:12:06.274Z,17.95
2018-09-05T04:13:06.181Z,17.83
2018-09-05T04:14:06.182Z,17.90
2018-09-05T04:15:06.182Z,17.87
2018-09-05T04:16:06.183Z,17.87
2018-09-05T04:17:06.184Z,17.85
2018-09-05T04:18:06.184Z,17.97
2018-09-05T04:19:06.186Z,17.92
2018-09-05T04:20:06.187Z,17.89
2018-09-05T04:21:06.189Z,17.90
2018-09-05T04:22:06.219Z,17.85
2018-09-05T04:23:06.188Z,17.89
2018-09-05T04:24:06.191Z,17.82
2018-09-05T04:25:06.189Z,17.79
2018-09-05T04:26:06.193Z,17.80
2018-09-05T04:27:06.191Z,17.79
2018-09-05T04:28:06.193Z,17.71
2018-09-05T04:29:06.194Z,17.63
2018-09-05T04:30:06.195Z,17.64
2018-09-05T04:31:06.195Z,17.68
2018-09-05T04:32:06.195Z,17.59
2018-09-05T04:33:06.197Z,17.67
2018-09-05T04:34:06.198Z,17.72
2018-09-05T04:35:06.197Z,17.76
2018-09-05T04:36:06.198Z,17.72
2018-09-05T04:37:06.200Z,17.80
2018-09-05T04:38:06.201Z,17.79
2018-09-05T04:39:06.201Z,17.85
2018-09-05T04:40:06.200Z,17.83
2018-09-05T04:41:06.202Z,17.86
2018-09-05T04:42:06.203Z,17.85
2018-09-05T04:43:06.202Z,17.87
2018-09-05T04:44:06.204Z,17.78
2018-09-05T04:45:06.253Z,17.85
2018-09-05T04:46:06.205Z,17.82
2018-09-05T04:47:06.204Z,17.76
2018-09-05T04:48:06.206Z,17.79
2018-09-05T04:49:06.206Z,17.76
2018-09-05T04:50:06.207Z,17.78
2018-09-05T04:51:06.208Z,17.63
2018-09-05T04:52:06.208Z,17.63
2018-09-05T04:53:06.208Z,17.54
2018-09-05T04:54:06.210Z,17.42
2018-09-05T04:55:06.216Z,17.49
2018-09-05T04:56:06.210Z,17.45
2018-09-05T04:57:06.212Z,17.42
2018-09-05T04:58:06.212Z,17.33
2018-09-05T04:59:06.214Z,17.27
2018-09-05T05:00:06.213Z,17.23
2018-09-05T05:01:06.216Z,17.19
2018-09-05T05:02:06.216Z,17.22
2018-09-05T05:03:06.216Z,17.16
2018-09-05T05:04:06.216Z,17.16
2018-09-05T05:05:06.217Z,17.22
2018-09-05T05:06:06.217Z,17.29
2018-09-05T05:07:06.215Z,17.31
2018-09-05T05:08:06.219Z,17.23
2018-09-05T05:09:06.219Z,17.19
2018-09-05T05:10:06.220Z,17.29
2018-09-05T05:11:06.219Z,17.24
2018-09-05T05:12:06.219Z,17.19
2018-09-05T05:13:06.221Z,17.24
2018-09-05T05:14:06.221Z,17.24
2018-09-05T05:15:06.223Z,17.31
2018-09-05T05:16:06.222Z,17.31
2018-09-05T05:17:06.223Z,17.30
2018-09-05T05:18:06.224Z,17.38
2018-09-05T05:19:06.225Z,17.44
2018-09-05T05:20:06.224Z,17.44
2018-09-05T05:21:06.225Z,17.45
2018-09-05T05:22:06.227Z,17.52
2018-09-05T05:23:06.227Z,17.44
2018-09-05T05:24:06.228Z,17.45
2018-09-05T05:25:06.227Z,17.42
2018-09-05T05:26:06.229Z,17.44
2018-09-05T05:27:06.229Z,17.45
2018-09-05T05:28:06.228Z,17.44
2018-09-05T05:29:06.229Z,17.39
2018-09-05T05:30:06.232Z,17.52
2018-09-05T05:31:06.230Z,17.60
2018-09-05T05:32:06.231Z,17.63
2018-09-05T05:33:06.233Z,17.68
2018-09-05T05:34:06.233Z,17.74
2018-09-05T05:35:06.234Z,17.85
2018-09-05T05:36:06.234Z,17.78
2018-09-05T05:37:06.234Z,17.85
2018-09-05T05:38:06.236Z,17.85
2018-09-05T05:39:06.236Z,17.82
2018-09-05T05:40:06.246Z,17.76
2018-09-05T05:41:06.238Z,17.82
2018-09-05T05:42:06.238Z,17.87
2018-09-05T05:43:06.244Z,17.86
2018-09-05T05:44:06.238Z,17.83
2018-09-05T05:45:06.240Z,17.89
2018-09-05T05:46:06.241Z,17.92
2018-09-05T05:47:06.240Z,17.94
2018-09-05T05:48:06.241Z,17.92
2018-09-05T05:49:06.241Z,18.13
2018-09-05T05:50:06.242Z,18.22
2018-09-05T05:51:06.242Z,18.28
2018-09-05T05:52:06.244Z,18.28
2018-09-05T05:53:06.244Z,18.29
2018-09-05T05:54:06.247Z,18.33
2018-09-05T05:55:06.275Z,18.37
2018-09-05T05:56:06.247Z,18.38
2018-09-05T05:57:06.248Z,18.41
2018-09-05T05:58:06.254Z,18.37
2018-09-05T05:59:06.250Z,18.45
2018-09-05T06:00:06.251Z,18.38
2018-09-05T06:01:06.281Z,18.52
2018-09-05T06:02:06.253Z,18.45
2018-09-05T06:03:06.254Z,18.47
2018-09-05T06:04:06.257Z,18.49
2018-09-05T06:05:06.255Z,18.59
2018-09-05T06:06:06.311Z,18.53
2018-09-05T06:07:06.260Z,18.60
2018-09-05T06:08:06.259Z,18.59
2018-09-05T06:09:06.260Z,18.63
2018-09-05T06:10:06.261Z,18.73
2018-09-05T06:11:06.261Z,18.70
2018-09-05T06:12:06.298Z,18.71
2018-09-05T06:13:06.266Z,18.84
2018-09-05T06:14:06.265Z,18.78
2018-09-05T06:15:06.268Z,18.88
2018-09-05T06:16:06.266Z,18.88
2018-09-05T06:17:06.269Z,18.92
2018-09-05T06:18:06.275Z,19.07
2018-09-05T06:19:06.274Z,19.11
2018-09-05T06:20:06.272Z,19.12
2018-09-05T06:21:06.349Z,19.14
2018-09-05T06:22:06.273Z,19.15
2018-09-05T06:23:06.274Z,19.22
2018-09-05T06:24:06.321Z,19.24
2018-09-05T06:25:06.279Z,19.31
2018-09-05T06:26:06.279Z,19.30
2018-09-05T06:27:06.280Z,19.31
2018-09-05T06:28:06.283Z,19.36
2018-09-05T06:29:06.283Z,19.29
2018-09-05T06:30:06.286Z,19.33
2018-09-05T06:31:06.411Z,19.48
2018-09-05T06:32:06.287Z,19.39
2018-09-05T06:33:06.288Z,19.39
2018-09-05T06:34:06.322Z,19.44
2018-09-05T06:35:06.294Z,19.56
2018-09-05T06:36:06.292Z,19.67
2018-09-05T06:37:06.294Z,19.67
2018-09-05T06:38:06.295Z,19.70
2018-09-05T06:39:06.341Z,19.71
2018-09-05T06:40:06.300Z,19.76
2018-09-05T06:41:06.300Z,19.86
2018-09-05T06:42:06.305Z,19.76
2018-09-05T06:43:06.303Z,19.82
2018-09-05T06:44:06.305Z,19.86
2018-09-05T06:45:06.408Z,19.88
2018-09-05T06:46:06.310Z,20.03
2018-09-05T06:47:06.311Z,20.13
2018-09-05T06:48:06.313Z,20.14
2018-09-05T06:49:06.314Z,20.09
2018-09-05T06:50:06.317Z,20.22
2018-09-05T06:51:06.317Z,20.16
2018-09-05T06:52:06.320Z,20.25
2018-09-05T06:53:06.322Z,20.40
2018-09-05T06:54:06.324Z,20.40
2018-09-05T06:55:06.325Z,20.47
2018-09-05T06:56:06.327Z,20.47
2018-09-05T06:57:06.334Z,20.44
2018-09-05T06:58:06.352Z,20.51
2018-09-05T06:59:06.333Z,20.60
2018-09-05T07:00:06.336Z,20.56
2018-09-05T07:01:06.338Z,20.78
2018-09-05T07:02:06.340Z,20.77
2018-09-05T07:03:06.343Z,20.81
2018-09-05T07:04:06.346Z,20.78
2018-09-05T07:05:06.348Z,20.77
2018-09-05T07:06:06.351Z,20.72
2018-09-05T07:07:06.415Z,20.77
2018-09-05T07:08:06.353Z,20.70
2018-09-05T07:09:06.360Z,20.72
2018-09-05T07:10:06.438Z,20.81
2018-09-05T07:11:06.361Z,20.90
2018-09-05T07:12:06.363Z,20.87
2018-09-05T07:13:06.367Z,20.93
2018-09-05T07:14:06.405Z,20.96
2018-09-05T07:15:06.371Z,21.03
2018-09-05T07:16:06.374Z,21.12
2018-09-05T07:17:06.376Z,21.03
2018-09-05T07:18:06.379Z,20.99
2018-09-05T07:19:06.385Z,20.84
2018-09-05T07:20:06.383Z,20.95
2018-09-05T07:21:06.407Z,20.90
2018-09-05T07:22:06.466Z,20.96
2018-09-05T07:23:06.389Z,20.93
2018-09-05T07:24:06.394Z,21.03
2018-09-05T07:25:06.425Z,21.22
2018-09-05T07:26:06.406Z,21.21
2018-09-05T07:27:06.400Z,21.20
2018-09-05T07:28:06.403Z,21.29
2018-09-05T07:29:06.407Z,21.33
2018-09-05T07:30:06.409Z,21.37
2018-09-05T07:31:06.413Z,21.40
2018-09-05T07:32:06.416Z,21.36
2018-09-05T07:33:06.425Z,21.54
2018-09-05T07:34:06.422Z,21.55
2018-09-05T07:35:06.426Z,21.69
2018-09-05T07:36:06.426Z,21.64
2018-09-05T07:37:06.427Z,21.51
2018-09-05T07:38:06.430Z,21.58
2018-09-05T07:39:06.436Z,21.51
2018-09-05T07:40:06.436Z,21.57
2018-09-05T07:41:06.439Z,21.61
2018-09-05T07:42:06.443Z,21.66
2018-09-05T07:43:06.445Z,21.64
2018-09-05T07:44:06.448Z,21.69
2018-09-05T07:45:06.450Z,21.69
2018-09-05T07:46:06.453Z,21.67
2018-09-05T07:47:06.456Z,21.73
2018-09-05T07:48:06.458Z,21.79
2018-09-05T07:49:06.463Z,21.82
2018-09-05T07:50:06.476Z,21.82
2018-09-05T07:51:06.474Z,21.99
2018-09-05T07:52:06.512Z,22.04
2018-09-05T07:53:06.476Z,22.00
2018-09-05T07:54:06.479Z,22.04
2018-09-05T07:55:06.481Z,21.99
2018-09-05T07:56:06.485Z,22.06
2018-09-05T07:57:06.487Z,22.10
2018-09-05T07:58:06.494Z,22.06
2018-09-05T07:59:06.493Z,22.20
2018-09-05T08:00:06.498Z,22.23
2018-09-05T08:01:06.503Z,22.39
2018-09-05T08:02:06.503Z,22.44
2018-09-05T08:03:06.511Z,22.51
2018-09-05T08:04:06.512Z,22.53
2018-09-05T08:05:06.516Z,22.60
2018-09-05T08:06:06.517Z,22.50
2018-09-05T08:07:06.519Z,22.63
2018-09-05T08:08:06.524Z,22.57
2018-09-05T08:09:06.526Z,22.51
2018-09-05T08:10:06.530Z,22.48
2018-09-05T08:11:06.534Z,22.38
2018-09-05T08:12:06.536Z,22.44
2018-09-05T08:13:06.541Z,22.51
2018-09-05T08:14:06.544Z,22.54
2018-09-05T08:15:06.547Z,22.59
2018-09-05T08:16:06.551Z,22.66
2018-09-05T08:17:06.552Z,22.65
2018-09-05T08:18:06.576Z,22.69
2018-09-05T08:19:06.560Z,22.76
2018-09-05T08:20:06.564Z,22.65
2018-09-05T08:21:06.568Z,22.72
2018-09-05T08:22:06.572Z,22.73
2018-09-05T08:23:06.576Z,22.78
2018-09-05T08:24:06.633Z,22.90
2018-09-05T08:25:06.588Z,23.02
2018-09-05T08:26:06.588Z,22.88
2018-09-05T08:27:06.594Z,22.99
2018-09-05T08:28:06.595Z,23.03
2018-09-05T08:29:06.663Z,23.10
2018-09-05T08:30:06.665Z,23.18
2018-09-05T08:31:06.609Z,23.37
2018-09-05T08:32:06.610Z,23.48
2018-09-05T08:33:06.614Z,23.54
2018-09-05T08:34:06.622Z,23.66
2018-09-05T08:35:06.664Z,24.03
2018-09-05T08:36:06.895Z,24.42
2018-09-05T08:37:06.818Z,24.66
2018-09-05T08:38:06.681Z,25.14
2018-09-05T08:39:06.642Z,25.88
2018-09-05T08:40:06.705Z,26.66
2018-09-05T08:41:06.686Z,27.17
2018-09-05T08:42:06.664Z,27.78
2018-09-05T08:43:06.665Z,28.12
2018-09-05T08:44:06.754Z,27.95
2018-09-05T08:45:06.851Z,28.78
2018-09-05T08:46:06.780Z,28.97
2018-09-05T08:47:06.696Z,29.05
2018-09-05T08:48:06.710Z,29.38
2018-09-05T08:49:06.715Z,29.71
2018-09-05T08:50:06.724Z,29.98
2018-09-05T08:51:06.734Z,30.28
2018-09-05T08:52:06.746Z,30.23
2018-09-05T08:53:06.754Z,30.18
2018-09-05T08:54:06.765Z,30.15
2018-09-05T08:55:06.820Z,29.81
2018-09-05T08:56:06.792Z,29.66
2018-09-05T08:57:06.801Z,30.15
2018-09-05T08:58:06.811Z,30.75
2018-09-05T08:59:06.823Z,30.53
2018-09-05T09:00:06.837Z,30.69
2018-09-05T09:01:06.848Z,30.83
2018-09-05T09:02:06.862Z,30.99
2018-09-05T09:03:07.071Z,31.10
2018-09-05T09:04:06.886Z,31.06
2018-09-05T09:05:06.944Z,30.06
2018-09-05T09:06:06.948Z,29.38
2018-09-05T09:07:06.929Z,29.76
2018-09-05T09:08:06.941Z,30.03
2018-09-05T09:09:06.956Z,29.71
2018-09-05T09:10:06.973Z,30.19
2018-09-05T09:11:06.985Z,30.03
2018-09-05T09:12:06.999Z,29.76
2018-09-05T09:13:07.015Z,29.78
2018-09-05T09:14:07.030Z,29.91
2018-09-05T09:15:07.045Z,30.15
2018-09-05T09:16:07.057Z,30.00
2018-09-05T09:17:07.074Z,30.50
2018-09-05T09:18:07.089Z,30.59
2018-09-05T09:19:07.104Z,30.81
2018-09-05T09:20:07.118Z,31.28
2018-09-05T09:21:07.133Z,31.74
2018-09-05T09:22:07.150Z,30.75
2018-09-05T09:23:07.168Z,31.09
2018-09-05T09:24:07.179Z,30.80
2018-09-05T09:25:07.195Z,30.88
2018-09-05T09:26:07.213Z,30.96
2018-09-05T09:27:07.226Z,30.84
2018-09-05T09:28:07.264Z,31.28
2018-09-05T09:29:07.258Z,31.66
2018-09-05T09:30:07.275Z,32.12
2018-09-05T09:31:07.290Z,32.18
2018-09-05T09:32:07.307Z,32.49
2018-09-05T09:33:07.325Z,32.73
2018-09-05T09:34:07.339Z,32.95
2018-09-05T09:35:07.357Z,32.82
2018-09-05T09:36:07.376Z,32.90
2018-09-05T09:37:07.387Z,32.92
2018-09-05T09:38:07.403Z,31.99
2018-09-05T09:39:07.419Z,32.18
2018-09-05T09:40:07.436Z,32.16
2018-09-05T09:41:07.455Z,32.46
2018-09-05T09:42:07.468Z,32.09
2018-09-05T09:43:07.487Z,31.34
2018-09-05T09:44:07.501Z,31.46
2018-09-05T09:45:07.518Z,30.91
2018-09-05T09:46:07.536Z,31.24
2018-09-05T09:47:07.551Z,31.70
2018-09-05T09:48:07.568Z,31.92
2018-09-05T09:49:07.585Z,32.33
2018-09-05T09:50:07.604Z,32.30
2018-09-05T09:51:07.620Z,31.92
2018-09-05T09:52:07.634Z,31.34
2018-09-05T09:53:07.651Z,31.87
2018-09-05T09:54:07.667Z,32.07
2018-09-05T09:55:07.683Z,32.22
2018-09-05T09:56:07.700Z,32.08
2018-09-05T09:57:07.717Z,32.19
2018-09-05T09:58:07.735Z,32.56
2018-09-05T09:59:07.750Z,32.16
2018-09-05T10:00:07.766Z,31.15
2018-09-05T10:01:07.782Z,30.96
2018-09-05T10:02:07.801Z,31.51
2018-09-05T10:03:07.868Z,32.15
2018-09-05T10:04:07.852Z,32.33
2018-09-05T10:05:07.850Z,32.23
2018-09-05T10:06:07.866Z,32.67
2018-09-05T10:07:07.938Z,32.12
2018-09-05T10:08:07.899Z,31.73
2018-09-05T10:09:07.915Z,31.97
2018-09-05T10:10:08.072Z,32.43
2018-09-05T10:11:07.948Z,32.68
2018-09-05T10:12:07.965Z,33.11
2018-09-05T10:13:07.982Z,32.19
2018-09-05T10:14:07.999Z,31.89
2018-09-05T10:15:08.015Z,32.19
2018-09-05T10:16:08.031Z,32.34
2018-09-05T10:17:08.110Z,31.37
2018-09-05T10:18:08.064Z,31.44
2018-09-05T10:19:08.080Z,31.62
2018-09-05T10:20:08.094Z,32.15
2018-09-05T10:21:08.176Z,32.80
2018-09-05T10:22:08.130Z,32.34
2018-09-05T10:23:08.145Z,32.97
2018-09-05T10:24:08.164Z,33.11
2018-09-05T10:25:08.177Z,32.85
2018-09-05T10:26:08.196Z,32.86
2018-09-05T10:27:08.210Z,33.04
2018-09-05T10:28:08.226Z,33.46
2018-09-05T10:29:08.246Z,33.77
2018-09-05T10:30:08.261Z,33.74
2018-09-05T10:31:08.275Z,33.92
2018-09-05T10:32:08.293Z,32.43
2018-09-05T10:33:08.310Z,31.49
2018-09-05T10:34:08.325Z,32.03
2018-09-05T10:35:08.343Z,31.93
2018-09-05T10:36:08.359Z,31.64
2018-09-05T10:37:08.375Z,31.70
2018-09-05T10:38:08.395Z,31.36
2018-09-05T10:39:08.407Z,31.44
2018-09-05T10:40:08.425Z,31.00
2018-09-05T10:41:08.440Z,30.96
2018-09-05T10:42:08.456Z,30.46
2018-09-05T10:43:08.472Z,29.53
2018-09-05T10:44:08.516Z,29.08
2018-09-05T10:45:08.505Z,29.13
2018-09-05T10:46:08.520Z,29.20
2018-09-05T10:47:08.536Z,29.08
2018-09-05T10:48:08.551Z,28.62
2018-09-05T10:49:08.567Z,28.48
2018-09-05T10:50:08.581Z,28.44
2018-09-05T10:51:08.595Z,28.63
2018-09-05T10:52:08.610Z,28.75
2018-09-05T10:53:08.624Z,28.97
2018-09-05T10:54:08.640Z,29.38
2018-09-05T10:55:08.653Z,29.47
2018-09-05T10:56:08.666Z,29.59
2018-09-05T10:57:08.680Z,29.36
2018-09-05T10:58:08.750Z,29.29
2018-09-05T10:59:08.707Z,29.34
2018-09-05T11:00:08.723Z,29.07
2018-09-05T11:01:08.734Z,28.98
2018-09-05T11:02:08.747Z,28.79
2018-09-05T11:03:08.758Z,28.88
2018-09-05T11:04:08.805Z,28.86
2018-09-05T11:05:08.787Z,28.97
2018-09-05T11:06:08.799Z,28.75
2018-09-05T11:07:08.812Z,28.39
2018-09-05T11:08:08.824Z,28.29
2018-09-05T11:09:08.836Z,28.38
2018-09-05T11:10:08.849Z,28.23
2018-09-05T11:11:08.860Z,28.01
2018-09-05T11:12:08.871Z,27.89
2018-09-05T11:13:08.885Z,27.59
2018-09-05T11:14:08.898Z,27.60
2018-09-05T11:15:08.912Z,27.86
2018-09-05T11:16:08.919Z,27.52
2018-09-05T11:17:08.931Z,27.45
2018-09-05T11:18:08.942Z,27.30
2018-09-05T11:19:08.953Z,27.45
2018-09-05T11:20:08.965Z,27.52
2018-09-05T11:21:08.982Z,27.47
2018-09-05T11:22:08.987Z,27.48
2018-09-05T11:23:08.998Z,27.39
2018-09-05T11:24:09.008Z,27.51
2018-09-05T11:25:09.020Z,27.48
2018-09-05T11:26:09.030Z,27.64
2018-09-05T11:27:09.040Z,27.67
2018-09-05T11:28:09.050Z,27.68
2018-09-05T11:29:09.114Z,27.68
2018-09-05T11:30:09.073Z,27.68
2018-09-05T11:31:09.080Z,27.83
2018-09-05T11:32:09.095Z,27.64
2018-09-05T11:33:09.101Z,27.68
2018-09-05T11:34:09.111Z,27.65
2018-09-05T11:35:09.120Z,27.78
2018-09-05T11:36:09.130Z,27.67
2018-09-05T11:37:09.141Z,27.85
2018-09-05T11:38:09.150Z,27.80
2018-09-05T11:39:09.159Z,27.82
2018-09-05T11:40:09.169Z,27.82
2018-09-05T11:41:09.178Z,27.98
2018-09-05T11:42:09.191Z,28.01
2018-09-05T11:43:09.203Z,28.00
2018-09-05T11:44:09.206Z,27.98
2018-09-05T11:45:09.217Z,28.02
2018-09-05T11:46:09.226Z,28.07
2018-09-05T11:47:09.236Z,28.12
2018-09-05T11:48:09.245Z,28.22
2018-09-05T11:49:09.253Z,28.33
2018-09-05T11:50:09.263Z,28.29
2018-09-05T11:51:09.271Z,28.33
2018-09-05T11:52:09.282Z,28.20
2018-09-05T11:53:09.292Z,28.33
2018-09-05T11:54:09.301Z,28.10
2018-09-05T11:55:09.309Z,27.95
2018-09-05T11:56:09.321Z,27.89
2018-09-05T11:57:09.329Z,28.07
2018-09-05T11:58:09.338Z,28.12
2018-09-05T11:59:09.345Z,28.29
2018-09-05T12:00:09.355Z,28.38
2018-09-05T12:01:09.365Z,28.37
2018-09-05T12:02:09.410Z,28.32
2018-09-05T12:03:09.382Z,28.39
2018-09-05T12:04:09.393Z,28.51
2018-09-05T12:05:09.403Z,28.57
2018-09-05T12:06:09.411Z,28.60
2018-09-05T12:07:09.420Z,28.66
2018-09-05T12:08:09.428Z,28.57
2018-09-05T12:09:09.439Z,28.60
2018-09-05T12:10:09.448Z,28.54
2018-09-05T12:11:09.456Z,28.56
2018-09-05T12:12:09.501Z,28.66
2018-09-05T12:13:09.476Z,28.74
2018-09-05T12:14:09.486Z,28.67
2018-09-05T12:15:09.497Z,28.38
2018-09-05T12:16:09.504Z,28.49
2018-09-05T12:17:09.514Z,28.75
2018-09-05T12:18:09.523Z,28.64
2018-09-05T12:19:09.533Z,28.33
2018-09-05T12:20:09.541Z,28.25
2018-09-05T12:21:09.552Z,28.33
2018-09-05T12:22:09.560Z,28.15
2018-09-05T12:23:09.573Z,28.25
2018-09-05T12:24:09.580Z,28.56
2018-09-05T12:25:09.591Z,28.69
2018-09-05T12:26:09.599Z,28.70
2018-09-05T12:27:09.609Z,28.67
2018-09-05T12:28:09.617Z,28.76
2018-09-05T12:29:09.630Z,28.82
2018-09-05T12:30:09.637Z,29.07
2018-09-05T12:31:09.645Z,29.12
2018-09-05T12:32:09.655Z,28.91
2018-09-05T12:33:09.664Z,28.91
2018-09-05T12:34:09.674Z,28.91
2018-09-05T12:35:09.684Z,29.12
2018-09-05T12:36:09.694Z,29.20
2018-09-05T12:37:09.703Z,29.19
2018-09-05T12:38:09.714Z,28.96
2018-09-05T12:39:09.724Z,29.02
2018-09-05T12:40:09.731Z,29.14
2018-09-05T12:41:09.742Z,29.26
2018-09-05T12:42:09.750Z,29.44
2018-09-05T12:43:09.760Z,29.45
2018-09-05T12:44:09.770Z,29.47
2018-09-05T12:45:09.780Z,29.61
2018-09-05T12:46:09.791Z,29.47
2018-09-05T12:47:09.799Z,29.59
2018-09-05T12:48:09.808Z,29.63
2018-09-05T12:49:09.818Z,29.51
2018-09-05T12:50:09.828Z,29.53
2018-09-05T12:51:09.837Z,29.39
2018-09-05T12:52:09.847Z,29.42